sensor_id;sensor_type;location;lat;lon;timestamp;pressure;altitude;pressure_sealevel;temperature;humidity
51229;BME280;37304;52.216;6.874;2022-10-16T00:04:29;100736.75;;;11.34;100.00
51229;BME280;37304;52.216;6.874;2022-10-16T00:09:29;100736.69;;;11.37;100.00
51229;BME280;37304;52.216;6.874;2022-10-16T00:14:29;100737.59;;;11.36;100.00
51229;BME280;37304;52.216;6.874;2022-10-16T00:19:30;100740.19;;;11.36;100.00
51229;BME280;37304;52.216;6.874;2022-10-16T00:24:30;100741.91;;;11.37;100.00
51229;BME280;37304;52.216;6.874;2022-10-16T00:29:30;100742.72;;;11.39;100.00
51229;BME280;37304;52.216;6.874;2022-10-16T00:34:31;100737.25;;;11.50;100.00
51229;BME280;37304;52.216;6.874;2022-10-16T00:39:31;100738.25;;;11.44;100.00
51229;BME280;37304;52.216;6.874;2022-10-16T00:45:00;100735.44;;;11.54;100.00
51229;BME280;37304;52.216;6.874;2022-10-16T00:55:30;100738.81;;;11.57;100.00
51229;BME280;37304;52.216;6.874;2022-10-16T01:00:30;100741.63;;;11.49;100.00
51229;BME280;37304;52.216;6.874;2022-10-16T01:05:38;100745.00;;;11.53;100.00
51229;BME280;37304;52.216;6.874;2022-10-16T01:16:13;100753.75;;;11.49;100.00
51229;BME280;37304;52.216;6.874;2022-10-16T01:21:24;100747.66;;;11.50;100.00
51229;BME280;37304;52.216;6.874;2022-10-16T01:32:07;100759.16;;;11.41;100.00
51229;BME280;37304;52.216;6.874;2022-10-16T01:37:16;100767.88;;;11.39;100.00
51229;BME280;37304;52.216;6.874;2022-10-16T01:42:21;100767.09;;;11.33;100.00
51229;BME280;37304;52.216;6.874;2022-10-16T01:47:25;100753.34;;;11.28;100.00
51229;BME280;37304;52.216;6.874;2022-10-16T01:52:27;100751.63;;;11.27;100.00
51229;BME280;37304;52.216;6.874;2022-10-16T01:57:29;100759.50;;;11.24;100.00
51229;BME280;37304;52.216;6.874;2022-10-16T02:02:31;100753.47;;;11.22;100.00
51229;BME280;37304;52.216;6.874;2022-10-16T02:07:32;100751.75;;;11.21;100.00
51229;BME280;37304;52.216;6.874;2022-10-16T02:12:34;100758.63;;;11.24;100.00
51229;BME280;37304;52.216;6.874;2022-10-16T02:17:36;100761.34;;;11.19;100.00
51229;BME280;37304;52.216;6.874;2022-10-16T02:22:43;100779.50;;;11.20;100.00
51229;BME280;37304;52.216;6.874;2022-10-16T02:27:58;100775.06;;;11.26;100.00
51229;BME280;37304;52.216;6.874;2022-10-16T02:33:02;100763.69;;;11.31;100.00
51229;BME280;37304;52.216;6.874;2022-10-16T02:38:05;100763.69;;;11.31;100.00
51229;BME280;37304;52.216;6.874;2022-10-16T02:43:07;100778.31;;;11.37;100.00
51229;BME280;37304;52.216;6.874;2022-10-16T02:48:09;100780.94;;;11.35;100.00
51229;BME280;37304;52.216;6.874;2022-10-16T02:53:09;100782.59;;;11.40;100.00
51229;BME280;37304;52.216;6.874;2022-10-16T02:58:09;100775.59;;;11.42;100.00
51229;BME280;37304;52.216;6.874;2022-10-16T03:03:10;100774.69;;;11.44;100.00
51229;BME280;37304;52.216;6.874;2022-10-16T03:08:10;100778.81;;;11.53;100.00
51229;BME280;37304;52.216;6.874;2022-10-16T03:13:10;100774.50;;;11.52;100.00
51229;BME280;37304;52.216;6.874;2022-10-16T03:18:11;100776.94;;;11.61;100.00
51229;BME280;37304;52.216;6.874;2022-10-16T03:23:11;100786.56;;;11.58;100.00
51229;BME280;37304;52.216;6.874;2022-10-16T03:28:12;100783.94;;;11.58;100.00
51229;BME280;37304;52.216;6.874;2022-10-16T03:33:12;100781.25;;;11.62;100.00
51229;BME280;37304;52.216;6.874;2022-10-16T03:38:12;100782.06;;;11.64;100.00
51229;BME280;37304;52.216;6.874;2022-10-16T03:43:13;100776.94;;;11.61;100.00
51229;BME280;37304;52.216;6.874;2022-10-16T03:48:13;100789.97;;;11.61;100.00
51229;BME280;37304;52.216;6.874;2022-10-16T03:53:14;100772.72;;;11.56;100.00
51229;BME280;37304;52.216;6.874;2022-10-16T03:58:15;100775.25;;;11.57;100.00
51229;BME280;37304;52.216;6.874;2022-10-16T04:03:16;100779.66;;;11.55;100.00
51229;BME280;37304;52.216;6.874;2022-10-16T04:08:17;100783.13;;;11.56;100.00
51229;BME280;37304;52.216;6.874;2022-10-16T04:13:18;100797.16;;;11.48;100.00
51229;BME280;37304;52.216;6.874;2022-10-16T04:18:18;100800.44;;;11.57;100.00
51229;BME280;37304;52.216;6.874;2022-10-16T04:23:19;100796.09;;;11.57;100.00
51229;BME280;37304;52.216;6.874;2022-10-16T04:28:19;100797.03;;;11.53;100.00
51229;BME280;37304;52.216;6.874;2022-10-16T04:33:19;100810.09;;;11.51;100.00
51229;BME280;37304;52.216;6.874;2022-10-16T04:38:19;100818.88;;;11.46;100.00
51229;BME280;37304;52.216;6.874;2022-10-16T04:43:20;100821.47;;;11.47;100.00
51229;BME280;37304;52.216;6.874;2022-10-16T04:48:21;100832.72;;;11.48;100.00
51229;BME280;37304;52.216;6.874;2022-10-16T04:53:21;100842.41;;;11.41;100.00
51229;BME280;37304;52.216;6.874;2022-10-16T04:58:21;100850.31;;;11.36;100.00
51229;BME280;37304;52.216;6.874;2022-10-16T05:03:22;100852.78;;;11.43;100.00
51229;BME280;37304;52.216;6.874;2022-10-16T05:08:22;100843.25;;;11.42;100.00
51229;BME280;37304;52.216;6.874;2022-10-16T05:13:22;100851.94;;;11.41;100.00
51229;BME280;37304;52.216;6.874;2022-10-16T05:18:23;100858.88;;;11.42;100.00
51229;BME280;37304;52.216;6.874;2022-10-16T05:23:23;100864.06;;;11.42;100.00
51229;BME280;37304;52.216;6.874;2022-10-16T05:28:27;100864.13;;;11.39;100.00
51229;BME280;37304;52.216;6.874;2022-10-16T05:33:28;100876.31;;;11.36;100.00
51229;BME280;37304;52.216;6.874;2022-10-16T05:38:29;100891.94;;;11.36;100.00
51229;BME280;37304;52.216;6.874;2022-10-16T05:43:30;100898.91;;;11.34;100.00
51229;BME280;37304;52.216;6.874;2022-10-16T05:48:31;100905.13;;;11.27;100.00
51229;BME280;37304;52.216;6.874;2022-10-16T05:53:33;100910.34;;;11.26;100.00
51229;BME280;37304;52.216;6.874;2022-10-16T05:58:35;100916.47;;;11.21;100.00
51229;BME280;37304;52.216;6.874;2022-10-16T06:03:36;100929.59;;;11.17;100.00
51229;BME280;37304;52.216;6.874;2022-10-16T06:08:37;100933.06;;;11.16;100.00
51229;BME280;37304;52.216;6.874;2022-10-16T06:13:37;100946.97;;;11.15;100.00
51229;BME280;37304;52.216;6.874;2022-10-16T06:18:39;100966.06;;;11.12;100.00
51229;BME280;37304;52.216;6.874;2022-10-16T06:23:39;100954.81;;;11.12;100.00
51229;BME280;37304;52.216;6.874;2022-10-16T06:28:40;100967.91;;;11.07;100.00
51229;BME280;37304;52.216;6.874;2022-10-16T06:33:41;100967.00;;;11.10;100.00
51229;BME280;37304;52.216;6.874;2022-10-16T06:38:41;100979.13;;;11.11;100.00
51229;BME280;37304;52.216;6.874;2022-10-16T06:43:42;100992.13;;;11.11;100.00
51229;BME280;37304;52.216;6.874;2022-10-16T06:48:45;100999.00;;;11.13;100.00
51229;BME280;37304;52.216;6.874;2022-10-16T06:53:48;101013.72;;;11.14;100.00
51229;BME280;37304;52.216;6.874;2022-10-16T06:58:50;101026.69;;;11.17;100.00
51229;BME280;37304;52.216;6.874;2022-10-16T07:03:51;101034.41;;;11.22;100.00
51229;BME280;37304;52.216;6.874;2022-10-16T07:08:52;101040.19;;;11.40;100.00
51229;BME280;37304;52.216;6.874;2022-10-16T07:13:52;101039.84;;;11.60;100.00
51229;BME280;37304;52.216;6.874;2022-10-16T07:18:57;101047.97;;;11.91;100.00
51229;BME280;37304;52.216;6.874;2022-10-16T07:24:00;101043.03;;;12.23;100.00
51229;BME280;37304;52.216;6.874;2022-10-16T07:29:01;101051.22;;;12.48;100.00
51229;BME280;37304;52.216;6.874;2022-10-16T07:34:01;101061.31;;;12.64;100.00
51229;BME280;37304;52.216;6.874;2022-10-16T07:39:02;101081.94;;;12.75;100.00
51229;BME280;37304;52.216;6.874;2022-10-16T07:44:03;101080.09;;;12.80;100.00
51229;BME280;37304;52.216;6.874;2022-10-16T07:49:09;101079.94;;;12.86;100.00
51229;BME280;37304;52.216;6.874;2022-10-16T07:54:15;101074.50;;;12.97;100.00
51229;BME280;37304;52.216;6.874;2022-10-16T07:59:15;101084.19;;;13.28;100.00
51229;BME280;37304;52.216;6.874;2022-10-16T08:04:15;101093.09;;;13.57;100.00
51229;BME280;37304;52.216;6.874;2022-10-16T08:09:16;101094.34;;;13.77;100.00
51229;BME280;37304;52.216;6.874;2022-10-16T08:14:16;101101.31;;;13.76;100.00
51229;BME280;37304;52.216;6.874;2022-10-16T08:19:17;101118.09;;;14.01;100.00
51229;BME280;37304;52.216;6.874;2022-10-16T08:24:17;101116.94;;;14.44;100.00
51229;BME280;37304;52.216;6.874;2022-10-16T08:29:17;101116.13;;;14.74;100.00
51229;BME280;37304;52.216;6.874;2022-10-16T08:34:27;101102.13;;;14.75;100.00
51229;BME280;37304;52.216;6.874;2022-10-16T08:39:27;101121.50;;;14.97;100.00
51229;BME280;37304;52.216;6.874;2022-10-16T08:44:53;101116.44;;;14.93;100.00
51229;BME280;37304;52.216;6.874;2022-10-16T08:50:02;101116.16;;;15.29;100.00
51229;BME280;37304;52.216;6.874;2022-10-16T08:55:28;101131.34;;;15.46;100.00
51229;BME280;37304;52.216;6.874;2022-10-16T09:00:29;101122.78;;;15.41;100.00
51229;BME280;37304;52.216;6.874;2022-10-16T09:05:57;101118.06;;;18.48;100.00
51229;BME280;37304;52.216;6.874;2022-10-16T09:21:31;101143.44;;;19.26;100.00
51229;BME280;37304;52.216;6.874;2022-10-16T09:26:32;101154.50;;;18.96;100.00
51229;BME280;37304;52.216;6.874;2022-10-16T09:32:10;101155.13;;;21.09;100.00
51229;BME280;37304;52.216;6.874;2022-10-16T09:37:36;101166.03;;;19.49;100.00
51229;BME280;37304;52.216;6.874;2022-10-16T09:42:37;101179.25;;;20.87;100.00
51229;BME280;37304;52.216;6.874;2022-10-16T09:53:41;101193.72;;;22.64;87.66
51229;BME280;37304;52.216;6.874;2022-10-16T09:58:43;101198.13;;;22.20;86.63
51229;BME280;37304;52.216;6.874;2022-10-16T10:03:44;101200.31;;;21.20;87.68
51229;BME280;37304;52.216;6.874;2022-10-16T10:19:21;101195.69;;;23.99;87.54
51229;BME280;37304;52.216;6.874;2022-10-16T10:24:21;101211.22;;;21.93;83.27
51229;BME280;37304;52.216;6.874;2022-10-16T10:40:49;101218.53;;;21.73;84.74
51229;BME280;37304;52.216;6.874;2022-10-16T10:45:55;101218.97;;;21.96;82.22
51229;BME280;37304;52.216;6.874;2022-10-16T10:51:20;101207.47;;;22.57;80.61
51229;BME280;37304;52.216;6.874;2022-10-16T10:56:57;101210.59;;;21.73;82.66
51229;BME280;37304;52.216;6.874;2022-10-16T11:03:20;101218.97;;;21.17;80.42
51229;BME280;37304;52.216;6.874;2022-10-16T11:08:07;101214.22;;;19.33;85.58
51229;BME280;37304;52.216;6.874;2022-10-16T11:13:21;101222.03;;;18.77;93.74
51229;BME280;37304;52.216;6.874;2022-10-16T11:18:42;101223.19;;;18.10;97.68
51229;BME280;37304;52.216;6.874;2022-10-16T11:23:53;101224.84;;;17.90;100.00
51229;BME280;37304;52.216;6.874;2022-10-16T11:28:56;101216.25;;;17.42;100.00
51229;BME280;37304;52.216;6.874;2022-10-16T11:34:30;101230.78;;;17.51;100.00
51229;BME280;37304;52.216;6.874;2022-10-16T11:39:32;101249.91;;;17.32;100.00
51229;BME280;37304;52.216;6.874;2022-10-16T11:44:38;101243.38;;;17.42;100.00
51229;BME280;37304;52.216;6.874;2022-10-16T11:49:40;101253.06;;;17.64;100.00
51229;BME280;37304;52.216;6.874;2022-10-16T11:55:16;101251.41;;;18.87;98.09
51229;BME280;37304;52.216;6.874;2022-10-16T12:00:24;101252.00;;;18.33;95.76
51229;BME280;37304;52.216;6.874;2022-10-16T12:11:20;101253.34;;;21.17;89.22
51229;BME280;37304;52.216;6.874;2022-10-16T12:16:23;101260.56;;;22.39;76.02
51229;BME280;37304;52.216;6.874;2022-10-16T12:21:30;101262.00;;;22.00;68.28
51229;BME280;37304;52.216;6.874;2022-10-16T12:26:37;101275.56;;;20.46;75.27
51229;BME280;37304;52.216;6.874;2022-10-16T12:31:44;101263.63;;;19.84;80.35
51229;BME280;37304;52.216;6.874;2022-10-16T12:36:45;101272.88;;;19.18;83.15
51229;BME280;37304;52.216;6.874;2022-10-16T12:41:46;101284.22;;;19.01;86.68
51229;BME280;37304;52.216;6.874;2022-10-16T12:46:46;101286.66;;;18.85;87.24
51229;BME280;37304;52.216;6.874;2022-10-16T12:51:49;101277.22;;;18.60;89.73
51229;BME280;37304;52.216;6.874;2022-10-16T13:18:33;101308.66;;;17.53;96.11
51229;BME280;37304;52.216;6.874;2022-10-16T13:23:51;101319.56;;;17.42;98.78
51229;BME280;37304;52.216;6.874;2022-10-16T13:28:58;101312.94;;;17.32;99.39
51229;BME280;37304;52.216;6.874;2022-10-16T13:34:00;101314.44;;;17.39;100.00
51229;BME280;37304;52.216;6.874;2022-10-16T13:39:22;101311.53;;;17.47;100.00
51229;BME280;37304;52.216;6.874;2022-10-16T13:44:23;101326.41;;;17.46;100.00
51229;BME280;37304;52.216;6.874;2022-10-16T13:49:24;101310.50;;;17.27;99.62
51229;BME280;37304;52.216;6.874;2022-10-16T13:54:26;101323.47;;;17.08;100.00
51229;BME280;37304;52.216;6.874;2022-10-16T13:59:33;101323.69;;;17.02;100.00
51229;BME280;37304;52.216;6.874;2022-10-16T14:04:38;101326.78;;;17.13;100.00
51229;BME280;37304;52.216;6.874;2022-10-16T14:09:39;101331.81;;;17.20;100.00
51229;BME280;37304;52.216;6.874;2022-10-16T14:14:58;101338.09;;;17.15;100.00
51229;BME280;37304;52.216;6.874;2022-10-16T14:20:00;101335.56;;;17.12;100.00
51229;BME280;37304;52.216;6.874;2022-10-16T14:30:27;101349.88;;;17.03;100.00
51229;BME280;37304;52.216;6.874;2022-10-16T14:35:37;101346.34;;;17.05;100.00
51229;BME280;37304;52.216;6.874;2022-10-16T14:40:47;101343.22;;;16.93;100.00
51229;BME280;37304;52.216;6.874;2022-10-16T14:45:52;101342.78;;;16.80;100.00
51229;BME280;37304;52.216;6.874;2022-10-16T14:50:53;101350.66;;;16.80;100.00
51229;BME280;37304;52.216;6.874;2022-10-16T14:55:53;101348.13;;;16.77;100.00
51229;BME280;37304;52.216;6.874;2022-10-16T15:00:55;101347.31;;;16.75;100.00
51229;BME280;37304;52.216;6.874;2022-10-16T15:05:58;101351.28;;;16.62;100.00
51229;BME280;37304;52.216;6.874;2022-10-16T15:10:58;101343.41;;;16.62;100.00
51229;BME280;37304;52.216;6.874;2022-10-16T15:15:58;101354.09;;;16.57;100.00
51229;BME280;37304;52.216;6.874;2022-10-16T15:20:59;101342.22;;;16.45;100.00
51229;BME280;37304;52.216;6.874;2022-10-16T15:25:59;101362.25;;;16.48;100.00
51229;BME280;37304;52.216;6.874;2022-10-16T15:31:00;101360.13;;;16.32;100.00
51229;BME280;37304;52.216;6.874;2022-10-16T15:36:02;101368.16;;;16.27;100.00
51229;BME280;37304;52.216;6.874;2022-10-16T15:41:03;101352.59;;;16.21;100.00
51229;BME280;37304;52.216;6.874;2022-10-16T15:46:05;101338.16;;;16.08;100.00
51229;BME280;37304;52.216;6.874;2022-10-16T15:51:07;101347.34;;;15.94;100.00
51229;BME280;37304;52.216;6.874;2022-10-16T15:56:09;101355.63;;;15.79;100.00
51229;BME280;37304;52.216;6.874;2022-10-16T16:01:10;101358.16;;;15.82;100.00
51229;BME280;37304;52.216;6.874;2022-10-16T16:06:13;101336.72;;;15.69;100.00
51229;BME280;37304;52.216;6.874;2022-10-16T16:11:15;101353.63;;;15.57;100.00
51229;BME280;37304;52.216;6.874;2022-10-16T16:16:16;101352.56;;;15.34;100.00
51229;BME280;37304;52.216;6.874;2022-10-16T16:21:17;101366.91;;;15.21;100.00
51229;BME280;37304;52.216;6.874;2022-10-16T16:26:24;101369.13;;;15.03;100.00
51229;BME280;37304;52.216;6.874;2022-10-16T16:31:29;101377.97;;;14.99;100.00
51229;BME280;37304;52.216;6.874;2022-10-16T16:36:30;101373.09;;;14.85;100.00
51229;BME280;37304;52.216;6.874;2022-10-16T16:41:30;101381.84;;;14.82;100.00
51229;BME280;37304;52.216;6.874;2022-10-16T16:46:32;101384.78;;;14.70;100.00
51229;BME280;37304;52.216;6.874;2022-10-16T16:51:33;101396.06;;;14.72;100.00
51229;BME280;37304;52.216;6.874;2022-10-16T16:56:33;101383.44;;;14.53;100.00
51229;BME280;37304;52.216;6.874;2022-10-16T17:01:34;101390.53;;;14.48;100.00
51229;BME280;37304;52.216;6.874;2022-10-16T17:06:34;101414.97;;;14.47;100.00
51229;BME280;37304;52.216;6.874;2022-10-16T17:11:34;101389.94;;;14.37;100.00
51229;BME280;37304;52.216;6.874;2022-10-16T17:16:36;101402.94;;;14.40;100.00
51229;BME280;37304;52.216;6.874;2022-10-16T17:21:37;101419.75;;;14.30;100.00
51229;BME280;37304;52.216;6.874;2022-10-16T17:26:38;101438.50;;;14.08;100.00
51229;BME280;37304;52.216;6.874;2022-10-16T17:31:40;101441.38;;;13.95;100.00
51229;BME280;37304;52.216;6.874;2022-10-16T17:36:41;101449.91;;;14.04;100.00
51229;BME280;37304;52.216;6.874;2022-10-16T17:41:47;101442.22;;;13.97;100.00
51229;BME280;37304;52.216;6.874;2022-10-16T17:46:49;101432.78;;;13.90;100.00
51229;BME280;37304;52.216;6.874;2022-10-16T17:51:51;101434.38;;;13.97;100.00
51229;BME280;37304;52.216;6.874;2022-10-16T17:56:52;101430.03;;;13.98;100.00
51229;BME280;37304;52.216;6.874;2022-10-16T18:01:52;101407.47;;;13.94;100.00
51229;BME280;37304;52.216;6.874;2022-10-16T18:06:56;101416.97;;;13.96;100.00
51229;BME280;37304;52.216;6.874;2022-10-16T18:11:56;101428.13;;;14.05;100.00
51229;BME280;37304;52.216;6.874;2022-10-16T18:17:00;101428.94;;;14.07;100.00
51229;BME280;37304;52.216;6.874;2022-10-16T18:22:01;101438.63;;;14.02;100.00
51229;BME280;37304;52.216;6.874;2022-10-16T18:27:01;101440.28;;;14.07;100.00
51229;BME280;37304;52.216;6.874;2022-10-16T18:32:05;101429.84;;;14.06;100.00
51229;BME280;37304;52.216;6.874;2022-10-16T18:37:14;101444.66;;;14.05;100.00
51229;BME280;37304;52.216;6.874;2022-10-16T18:42:18;101428.94;;;14.07;100.00
51229;BME280;37304;52.216;6.874;2022-10-16T18:47:19;101422.81;;;14.09;100.00
51229;BME280;37304;52.216;6.874;2022-10-16T18:52:20;101428.88;;;14.10;100.00
51229;BME280;37304;52.216;6.874;2022-10-16T18:57:23;101448.81;;;14.16;100.00
51229;BME280;37304;52.216;6.874;2022-10-16T19:02:23;101454.81;;;14.19;100.00
51229;BME280;37304;52.216;6.874;2022-10-16T19:07:24;101459.28;;;14.14;100.00
51229;BME280;37304;52.216;6.874;2022-10-16T19:12:26;101462.84;;;14.10;100.00
51229;BME280;37304;52.216;6.874;2022-10-16T19:17:26;101456.72;;;14.12;100.00
51229;BME280;37304;52.216;6.874;2022-10-16T19:22:41;101458.44;;;14.12;100.00
51229;BME280;37304;52.216;6.874;2022-10-16T19:27:55;101445.38;;;14.12;100.00
51229;BME280;37304;52.216;6.874;2022-10-16T19:32:56;101464.47;;;14.16;100.00
51229;BME280;37304;52.216;6.874;2022-10-16T19:37:56;101486.16;;;14.21;100.00
51229;BME280;37304;52.216;6.874;2022-10-16T19:42:57;101504.53;;;14.18;100.00
51229;BME280;37304;52.216;6.874;2022-10-16T19:47:57;101513.38;;;14.10;100.00
51229;BME280;37304;52.216;6.874;2022-10-16T19:52:59;101516.97;;;14.06;100.00
51229;BME280;37304;52.216;6.874;2022-10-16T19:57:59;101522.19;;;14.06;100.00
51229;BME280;37304;52.216;6.874;2022-10-16T20:03:00;101521.34;;;14.04;100.00
51229;BME280;37304;52.216;6.874;2022-10-16T20:08:02;101532.66;;;14.05;100.00
51229;BME280;37304;52.216;6.874;2022-10-16T20:13:03;101543.28;;;13.97;100.00
51229;BME280;37304;52.216;6.874;2022-10-16T20:18:03;101538.16;;;13.91;100.00
51229;BME280;37304;52.216;6.874;2022-10-16T20:23:03;101519.13;;;13.84;100.00
51229;BME280;37304;52.216;6.874;2022-10-16T20:28:05;101487.91;;;13.76;100.00
51229;BME280;37304;52.216;6.874;2022-10-16T20:33:07;101487.06;;;13.76;100.00
51229;BME280;37304;52.216;6.874;2022-10-16T20:38:12;101508.09;;;13.68;100.00
51229;BME280;37304;52.216;6.874;2022-10-16T20:43:15;101515.03;;;13.71;100.00
51229;BME280;37304;52.216;6.874;2022-10-16T20:48:15;101516.94;;;13.62;100.00
51229;BME280;37304;52.216;6.874;2022-10-16T20:53:16;101521.34;;;13.57;100.00
51229;BME280;37304;52.216;6.874;2022-10-16T20:58:16;101533.59;;;13.55;100.00
51229;BME280;37304;52.216;6.874;2022-10-16T21:03:16;101553.69;;;13.51;100.00
51229;BME280;37304;52.216;6.874;2022-10-16T21:08:17;101531.13;;;13.47;100.00
51229;BME280;37304;52.216;6.874;2022-10-16T21:13:17;101518.97;;;13.45;100.00
51229;BME280;37304;52.216;6.874;2022-10-16T21:18:17;101527.63;;;13.47;100.00
51229;BME280;37304;52.216;6.874;2022-10-16T21:23:18;101518.00;;;13.50;100.00
51229;BME280;37304;52.216;6.874;2022-10-16T21:28:19;101502.28;;;13.53;100.00
51229;BME280;37304;52.216;6.874;2022-10-16T21:33:19;101474.47;;;13.51;100.00
51229;BME280;37304;52.216;6.874;2022-10-16T21:38:21;101474.53;;;13.48;100.00
51229;BME280;37304;52.216;6.874;2022-10-16T21:43:21;101478.09;;;13.44;100.00
51229;BME280;37304;52.216;6.874;2022-10-16T21:48:22;101481.59;;;13.43;100.00
51229;BME280;37304;52.216;6.874;2022-10-16T21:53:22;101482.44;;;13.42;100.00
51229;BME280;37304;52.216;6.874;2022-10-16T21:58:22;101482.50;;;13.40;100.00
51229;BME280;37304;52.216;6.874;2022-10-16T22:03:23;101479.06;;;13.36;100.00
51229;BME280;37304;52.216;6.874;2022-10-16T22:08:23;101470.34;;;13.37;100.00
51229;BME280;37304;52.216;6.874;2022-10-16T22:13:24;101474.66;;;13.38;100.00
51229;BME280;37304;52.216;6.874;2022-10-16T22:18:24;101472.13;;;13.35;100.00
51229;BME280;37304;52.216;6.874;2022-10-16T22:23:25;101477.28;;;13.38;100.00
51229;BME280;37304;52.216;6.874;2022-10-16T22:28:25;101475.53;;;13.39;100.00
51229;BME280;37304;52.216;6.874;2022-10-16T22:33:25;101480.78;;;13.39;100.00
51229;BME280;37304;52.216;6.874;2022-10-16T22:38:30;101472.91;;;13.42;100.00
51229;BME280;37304;52.216;6.874;2022-10-16T22:43:34;101469.50;;;13.37;100.00
51229;BME280;37304;52.216;6.874;2022-10-16T22:48:35;101458.16;;;13.36;100.00
51229;BME280;37304;52.216;6.874;2022-10-16T22:53:36;101463.50;;;13.32;100.00
51229;BME280;37304;52.216;6.874;2022-10-16T22:58:36;101459.19;;;13.29;100.00
51229;BME280;37304;52.216;6.874;2022-10-16T23:03:37;101441.03;;;13.23;100.00
51229;BME280;37304;52.216;6.874;2022-10-16T23:08:37;101456.84;;;13.12;100.00
51229;BME280;37304;52.216;6.874;2022-10-16T23:13:39;101449.97;;;13.09;100.00
51229;BME280;37304;52.216;6.874;2022-10-16T23:18:44;101459.56;;;13.06;100.00
51229;BME280;37304;52.216;6.874;2022-10-16T23:23:45;101454.50;;;12.98;100.00
51229;BME280;37304;52.216;6.874;2022-10-16T23:28:46;101457.19;;;12.92;100.00
51229;BME280;37304;52.216;6.874;2022-10-16T23:33:47;101466.06;;;12.81;100.00
51229;BME280;37304;52.216;6.874;2022-10-16T23:38:48;101456.66;;;12.73;100.00
51229;BME280;37304;52.216;6.874;2022-10-16T23:43:48;101461.88;;;12.71;100.00
51229;BME280;37304;52.216;6.874;2022-10-16T23:48:50;101467.13;;;12.68;100.00
51229;BME280;37304;52.216;6.874;2022-10-16T23:53:50;101470.69;;;12.65;100.00
51229;BME280;37304;52.216;6.874;2022-10-16T23:58:51;101468.03;;;12.67;100.00
